createdAt,value
2022-08-05T00:00:50.368Z,101733.09
2022-08-05T00:03:20.692Z,101724.25
2022-08-05T00:06:05.341Z,101730.44
2022-08-05T00:08:45.324Z,101727.81
2022-08-05T00:11:30.246Z,101730.47
2022-08-05T00:14:12.999Z,101734.00
2022-08-05T00:16:53.866Z,101726.03
2022-08-05T00:19:33.595Z,101728.69
2022-08-05T00:22:17.955Z,101728.72
2022-08-05T00:24:55.020Z,101734.03
2022-08-05T00:27:35.674Z,101738.47
2022-08-05T00:30:11.528Z,101734.09
2022-08-05T00:32:42.614Z,101749.13
2022-08-05T00:35:13.670Z,101752.69
2022-08-05T00:37:52.615Z,101749.19
2022-08-05T00:40:29.706Z,101744.78
2022-08-05T00:43:01.699Z,101743.91
2022-08-05T00:45:43.064Z,101748.34
2022-08-05T00:48:15.837Z,101747.47
2022-08-05T00:50:46.899Z,101741.25
2022-08-05T00:54:01.063Z,101740.38
2022-08-05T00:56:12.068Z,101751.00
2022-08-05T00:58:42.504Z,101748.34
2022-08-05T01:01:24.943Z,101748.34
2022-08-05T01:04:14.351Z,101750.97
2022-08-05T01:06:49.079Z,101750.09
2022-08-05T01:09:22.690Z,101749.25
2022-08-05T01:12:01.902Z,101756.31
2022-08-05T01:14:44.584Z,101757.22
2022-08-05T01:17:24.114Z,101771.34
2022-08-05T01:20:02.903Z,101774.88
2022-08-05T01:22:48.204Z,101773.13
2022-08-05T01:25:41.702Z,101774.88
2022-08-05T01:28:36.370Z,101785.53
2022-08-05T01:31:12.498Z,101791.72
2022-08-05T01:33:53.482Z,101796.16
2022-08-05T01:36:28.875Z,101806.75
2022-08-05T01:39:01.299Z,101794.38
2022-08-05T01:41:35.772Z,101798.81
2022-08-05T01:44:14.077Z,101791.72
2022-08-05T01:46:46.791Z,101789.06
2022-08-05T01:49:24.885Z,101794.38
2022-08-05T01:52:01.030Z,101787.31
2022-08-05T01:54:46.129Z,101787.31
2022-08-05T01:58:09.431Z,101770.53
2022-08-05T02:00:17.120Z,101765.22
2022-08-05T02:02:55.074Z,101767.88
2022-08-05T02:05:30.504Z,101751.94
2022-08-05T02:08:04.744Z,101751.94
2022-08-05T02:10:42.756Z,101755.50
2022-08-05T02:13:17.551Z,101745.78
2022-08-05T02:15:58.439Z,101750.19
2022-08-05T02:18:35.644Z,101759.97
2022-08-05T02:21:14.802Z,101758.19
2022-08-05T02:23:48.515Z,101752.88
2022-08-05T02:26:28.815Z,101753.75
2022-08-05T02:28:59.987Z,101744.03
2022-08-05T02:31:38.884Z,101750.22
2022-08-05T02:34:14.424Z,101742.25
2022-08-05T02:36:50.051Z,101752.00
2022-08-05T02:39:23.786Z,101744.03
2022-08-05T02:42:00.486Z,101744.03
2022-08-05T02:44:34.520Z,101733.44
2022-08-05T02:47:09.064Z,101736.09
2022-08-05T02:49:43.361Z,101749.34
2022-08-05T02:52:30.132Z,101751.13
2022-08-05T02:55:05.404Z,101759.06
2022-08-05T02:58:10.178Z,101763.47
2022-08-05T03:00:29.799Z,101760.84
2022-08-05T03:03:10.274Z,101762.59
2022-08-05T03:06:55.504Z,101764.34
2022-08-05T03:08:33.827Z,101767.88
2022-08-05T03:11:54.362Z,101773.19
2022-08-05T03:14:03.322Z,101775.81
2022-08-05T03:16:35.829Z,101778.47
2022-08-05T03:19:17.080Z,101773.16
2022-08-05T03:21:58.945Z,101774.03
2022-08-05T03:24:31.010Z,101774.91
2022-08-05T03:27:02.072Z,101776.69
2022-08-05T03:29:44.647Z,101771.38
2022-08-05T03:32:30.839Z,101781.06
2022-08-05T03:35:05.581Z,101774.00
2022-08-05T03:37:46.244Z,101789.91
2022-08-05T03:40:31.257Z,101793.41
2022-08-05T03:43:58.722Z,101793.41
2022-08-05T03:45:58.530Z,101789.84
2022-08-05T03:48:29.659Z,101793.38
2022-08-05T03:52:38.779Z,101788.97
2022-08-05T03:55:54.744Z,101780.13
2022-08-05T03:57:16.713Z,101779.22
2022-08-05T03:59:56.249Z,101791.56
2022-08-05T04:02:37.635Z,101792.44
2022-08-05T04:05:12.182Z,101789.78
2022-08-05T04:07:57.760Z,101780.94
2022-08-05T04:10:37.546Z,101778.28
2022-08-05T04:13:12.096Z,101780.03
2022-08-05T04:15:52.891Z,101779.16
2022-08-05T04:18:34.529Z,101787.97
2022-08-05T04:21:05.225Z,101777.38
2022-08-05T04:23:57.318Z,101778.25
2022-08-05T04:26:32.364Z,101781.75
2022-08-05T04:29:07.476Z,101787.00
2022-08-05T04:31:38.647Z,101776.41
2022-08-05T04:34:31.247Z,101782.56
2022-08-05T04:37:03.091Z,101782.53
2022-08-05T04:39:36.103Z,101784.28
2022-08-05T04:42:06.690Z,101781.63
2022-08-05T04:44:38.012Z,101778.09
2022-08-05T04:47:12.796Z,101778.06
2022-08-05T04:50:02.918Z,101777.19
2022-08-05T04:52:37.014Z,101772.78
2022-08-05T04:55:14.612Z,101768.38
2022-08-05T04:57:51.618Z,101778.09
2022-08-05T05:00:27.618Z,101768.41
2022-08-05T05:03:03.703Z,101776.38
2022-08-05T05:05:34.737Z,101771.06
2022-08-05T05:08:30.466Z,101773.75
2022-08-05T05:11:06.505Z,101775.53
2022-08-05T05:13:43.194Z,101783.50
2022-08-05T05:16:15.496Z,101780.88
2022-08-05T05:19:16.427Z,101780.91
2022-08-05T05:21:40.445Z,101784.50
2022-08-05T05:24:10.683Z,101789.88
2022-08-05T05:26:43.661Z,101796.97
2022-08-05T05:29:16.946Z,101793.50
2022-08-05T05:31:51.032Z,101794.41
2022-08-05T05:34:27.058Z,101790.00
2022-08-05T05:36:58.294Z,101794.44
2022-08-05T05:39:34.379Z,101796.19
2022-08-05T05:42:08.225Z,101789.09
2022-08-05T05:44:43.115Z,101793.47
2022-08-05T05:47:21.489Z,101792.53
2022-08-05T05:50:01.530Z,101800.44
2022-08-05T05:52:37.960Z,101804.84
2022-08-05T05:55:13.848Z,101804.81
2022-08-05T05:57:52.715Z,101804.81
2022-08-05T06:00:31.438Z,101807.31
2022-08-05T06:03:40.239Z,101814.38
2022-08-05T06:05:56.938Z,101811.78
2022-08-05T06:08:32.284Z,101814.44
2022-08-05T06:11:04.174Z,101811.63
2022-08-05T06:13:40.771Z,101812.56
2022-08-05T06:16:30.849Z,101809.81
2022-08-05T06:19:08.164Z,101822.09
2022-08-05T06:21:42.959Z,101824.63
2022-08-05T06:24:25.705Z,101823.69
2022-08-05T06:26:57.890Z,101819.31
2022-08-05T06:29:52.107Z,101830.50
2022-08-05T06:32:34.086Z,101830.38
2022-08-05T06:35:05.955Z,101822.38
2022-08-05T06:37:57.778Z,101825.84
2022-08-05T06:40:32.648Z,101834.38
2022-08-05T06:43:51.669Z,101833.78
2022-08-05T06:46:18.281Z,101839.16
2022-08-05T06:48:56.742Z,101840.50
2022-08-05T06:51:36.974Z,101829.50
2022-08-05T06:54:18.044Z,101839.56
2022-08-05T06:56:55.055Z,101838.63
2022-08-05T06:59:42.338Z,101839.06
2022-08-05T07:02:33.696Z,101838.06
2022-08-05T07:05:14.206Z,101848.81
2022-08-05T07:07:50.680Z,101858.66
2022-08-05T07:10:32.213Z,101856.56
2022-08-05T07:13:17.124Z,101861.84
2022-08-05T07:17:56.513Z,101860.28
2022-08-05T07:19:16.018Z,101860.41
2022-08-05T07:22:05.679Z,101866.66
2022-08-05T07:24:44.042Z,101863.78
2022-08-05T07:27:23.198Z,101877.09
2022-08-05T07:30:22.083Z,101880.44
2022-08-05T07:32:54.233Z,101884.19
2022-08-05T07:36:04.527Z,101893.03
2022-08-05T07:38:32.054Z,101888.94
2022-08-05T07:41:35.183Z,101901.16
2022-08-05T07:43:56.785Z,101900.31
2022-08-05T07:46:28.218Z,101905.72
2022-08-05T07:49:05.391Z,101904.75
2022-08-05T07:51:53.452Z,101920.66
2022-08-05T07:54:31.002Z,101931.97
2022-08-05T07:57:22.861Z,101926.69
2022-08-05T07:59:57.291Z,101938.59
2022-08-05T08:02:31.347Z,101941.03
2022-08-05T08:05:19.730Z,101943.81
2022-08-05T08:08:00.146Z,101937.75
2022-08-05T08:10:31.053Z,101958.28
2022-08-05T08:13:04.424Z,101955.84
2022-08-05T08:16:33.271Z,101967.53
2022-08-05T08:18:26.305Z,101966.56
2022-08-05T08:21:03.393Z,101964.78
2022-08-05T08:24:02.683Z,101964.78
2022-08-05T08:26:30.987Z,101969.28
2022-08-05T08:29:22.187Z,101969.31
2022-08-05T08:31:56.745Z,101974.63
2022-08-05T08:34:33.415Z,101979.06
2022-08-05T08:37:09.820Z,101979.13
2022-08-05T08:39:44.311Z,101981.81
2022-08-05T08:42:34.127Z,101981.84
2022-08-05T08:45:40.817Z,101996.00
2022-08-05T08:48:41.626Z,102004.88
2022-08-05T08:52:04.306Z,102013.84
2022-08-05T08:54:36.555Z,102012.97
2022-08-05T08:57:48.206Z,102011.19
2022-08-05T09:00:33.624Z,102020.03
2022-08-05T09:03:24.784Z,102029.75
2022-08-05T09:06:21.115Z,102023.59
2022-08-05T09:08:59.438Z,102038.66
2022-08-05T09:11:51.202Z,102041.28
2022-08-05T09:14:57.810Z,102043.03
2022-08-05T09:17:43.128Z,102037.75
2022-08-05T09:20:50.473Z,102031.50
2022-08-05T09:23:27.166Z,102045.66
2022-08-05T09:26:20.495Z,102042.13
2022-08-05T09:28:56.541Z,102044.78
2022-08-05T09:32:39.773Z,102052.78
2022-08-05T09:34:48.954Z,102056.31
2022-08-05T09:38:16.648Z,102050.09
2022-08-05T09:40:34.007Z,102060.75
2022-08-05T09:43:08.380Z,102066.94
2022-08-05T09:46:07.169Z,102074.91
2022-08-05T09:49:07.024Z,102072.31
2022-08-05T09:51:39.924Z,102075.78
2022-08-05T09:54:13.588Z,102087.31
2022-08-05T09:56:51.433Z,102078.47
2022-08-05T09:59:21.850Z,102080.22
2022-08-05T10:01:57.810Z,102089.97
2022-08-05T10:04:39.879Z,102096.19
2022-08-05T10:07:19.975Z,102089.97
2022-08-05T10:10:13.781Z,102097.06
2022-08-05T10:12:51.802Z,102104.16
2022-08-05T10:15:26.117Z,102097.94
2022-08-05T10:18:12.636Z,102105.03
2022-08-05T10:20:48.503Z,102097.94
2022-08-05T10:23:55.517Z,102094.41
2022-08-05T10:26:14.900Z,102094.38
2022-08-05T10:28:46.769Z,102094.38
2022-08-05T10:32:50.892Z,102095.25
2022-08-05T10:34:11.033Z,102105.91
2022-08-05T10:36:45.136Z,102101.47
2022-08-05T10:39:24.436Z,102097.91
2022-08-05T10:42:05.119Z,102098.78
2022-08-05T10:44:35.951Z,102096.06
2022-08-05T10:47:26.614Z,102097.81
2022-08-05T10:50:32.174Z,102105.72
2022-08-05T10:53:05.925Z,102112.84
2022-08-05T10:56:03.477Z,102107.53
2022-08-05T10:58:48.032Z,102114.50
2022-08-05T11:01:28.132Z,102119.81
2022-08-05T11:04:12.657Z,102119.78
2022-08-05T11:07:07.482Z,102131.19
2022-08-05T11:09:48.517Z,102125.69
2022-08-05T11:12:54.336Z,102130.97
2022-08-05T11:16:00.276Z,102135.06
2022-08-05T11:18:32.469Z,102129.56
2022-08-05T11:21:11.573Z,102135.66
2022-08-05T11:24:04.527Z,102137.84
2022-08-05T11:26:40.461Z,102133.59
2022-08-05T11:29:43.157Z,102143.28
2022-08-05T11:32:29.773Z,102139.19
2022-08-05T11:35:00.863Z,102144.75
2022-08-05T11:38:36.506Z,102148.50
2022-08-05T11:41:36.858Z,102159.94
2022-08-05T11:44:05.755Z,102155.31
2022-08-05T11:47:09.806Z,102162.59
2022-08-05T11:49:36.473Z,102161.72
2022-08-05T11:52:08.712Z,102173.06
2022-08-05T11:54:43.544Z,102161.59
2022-08-05T11:58:08.351Z,102173.41
2022-08-05T12:00:31.031Z,102168.09
2022-08-05T12:03:23.775Z,102169.50
2022-08-05T12:06:02.873Z,102170.47
2022-08-05T12:08:33.567Z,102167.13
2022-08-05T12:11:07.298Z,102176.31
2022-08-05T12:13:49.439Z,102177.84
2022-08-05T12:16:29.564Z,102178.25
2022-08-05T12:19:03.490Z,102181.72
2022-08-05T12:21:46.944Z,102187.75
2022-08-05T12:24:21.114Z,102195.16
2022-08-05T12:26:57.488Z,102198.91
2022-08-05T12:29:37.957Z,102191.59
2022-08-05T12:32:12.474Z,102194.72
2022-08-05T12:34:46.075Z,102183.41
2022-08-05T12:37:21.628Z,102205.84
2022-08-05T12:39:56.229Z,102201.56
2022-08-05T12:42:33.833Z,102205.13
2022-08-05T12:45:09.901Z,102211.22
2022-08-05T12:47:43.612Z,102210.31
2022-08-05T12:50:34.143Z,102213.81
2022-08-05T12:53:04.629Z,102223.31
2022-08-05T12:55:43.358Z,102231.44
2022-08-05T12:58:52.494Z,102223.19
2022-08-05T13:02:03.463Z,102235.19
2022-08-05T13:04:09.861Z,102244.41
2022-08-05T13:06:51.648Z,102233.22
2022-08-05T13:09:28.102Z,102230.06
2022-08-05T13:12:06.436Z,102237.03
2022-08-05T13:14:44.421Z,102249.63
2022-08-05T13:17:25.187Z,102249.38
2022-08-05T13:20:04.517Z,102250.69
2022-08-05T13:22:40.593Z,102249.16
2022-08-05T13:25:19.456Z,102262.81
2022-08-05T13:27:54.694Z,102253.19
2022-08-05T13:30:34.063Z,102263.56
2022-08-05T13:33:05.157Z,102263.69
2022-08-05T13:35:43.327Z,102272.97
2022-08-05T13:38:30.669Z,102268.78
2022-08-05T13:41:06.669Z,102277.00
2022-08-05T13:43:45.618Z,102269.00
2022-08-05T13:46:51.026Z,102293.06
2022-08-05T13:49:16.487Z,102295.09
2022-08-05T13:51:47.100Z,102299.50
2022-08-05T13:54:24.837Z,102279.63
2022-08-05T13:56:55.670Z,102285.78
2022-08-05T13:59:30.594Z,102301.16
2022-08-05T14:02:02.175Z,102308.34
2022-08-05T14:04:50.036Z,102315.72
2022-08-05T14:07:56.309Z,102318.47
2022-08-05T14:10:19.097Z,102314.06
2022-08-05T14:13:00.867Z,102323.81
2022-08-05T14:16:04.664Z,102322.00
2022-08-05T14:18:26.022Z,102320.25
2022-08-05T14:20:56.156Z,102328.19
2022-08-05T14:23:29.678Z,102327.34
2022-08-05T14:26:09.670Z,102343.34
2022-08-05T14:28:59.640Z,102340.72
2022-08-05T14:32:03.085Z,102350.50
2022-08-05T14:34:23.656Z,102357.63
2022-08-05T14:36:55.583Z,102355.84
2022-08-05T14:39:26.764Z,102361.09
2022-08-05T14:42:19.357Z,102353.09
2022-08-05T14:44:49.981Z,102358.38
2022-08-05T14:47:37.041Z,102364.72
2022-08-05T14:50:17.461Z,102362.09
2022-08-05T14:52:56.889Z,102355.88
2022-08-05T14:55:39.130Z,102363.84
2022-08-05T14:58:14.178Z,102376.34
2022-08-05T15:00:58.002Z,102374.50
2022-08-05T15:03:33.738Z,102365.63
2022-08-05T15:06:07.707Z,102365.59
2022-08-05T15:08:59.777Z,102372.75
2022-08-05T15:11:53.105Z,102378.03
2022-08-05T15:14:34.907Z,102372.75
2022-08-05T15:17:46.549Z,102379.81
2022-08-05T15:20:07.471Z,102389.63
2022-08-05T15:22:39.920Z,102379.81
2022-08-05T15:25:14.305Z,102391.41
2022-08-05T15:27:52.326Z,102386.94
2022-08-05T15:30:29.009Z,102379.91
2022-08-05T15:32:59.406Z,102386.94
2022-08-05T15:35:36.325Z,102395.81
2022-08-05T15:38:35.004Z,102387.84
2022-08-05T15:41:22.623Z,102386.91
2022-08-05T15:43:58.887Z,102398.50
2022-08-05T15:46:35.169Z,102396.72
2022-08-05T15:49:09.852Z,102405.59
2022-08-05T15:52:04.402Z,102401.16
2022-08-05T15:54:34.935Z,102390.47
2022-08-05T15:57:08.205Z,102394.91
2022-08-05T15:59:38.893Z,102398.47
2022-08-05T16:02:14.757Z,102397.59
2022-08-05T16:04:50.104Z,102395.88
2022-08-05T16:07:22.779Z,102408.25
2022-08-05T16:09:54.096Z,102411.84
2022-08-05T16:12:25.470Z,102413.56
2022-08-05T16:14:56.010Z,102413.56
2022-08-05T16:17:30.522Z,102408.28
2022-08-05T16:20:11.694Z,102420.72
2022-08-05T16:22:42.853Z,102415.38
2022-08-05T16:25:13.499Z,102417.16
2022-08-05T16:28:01.039Z,102420.63
2022-08-05T16:30:34.376Z,102417.94
2022-08-05T16:33:08.854Z,102421.47
2022-08-05T16:35:42.163Z,102427.50
2022-08-05T16:38:23.841Z,102429.34
2022-08-05T16:42:12.695Z,102431.09
2022-08-05T16:43:58.459Z,102440.81
2022-08-05T16:46:29.499Z,102439.00
2022-08-05T16:49:02.795Z,102438.13
2022-08-05T16:51:42.859Z,102445.19
2022-08-05T16:54:28.976Z,102449.47
2022-08-05T16:57:02.043Z,102446.72
2022-08-05T16:59:32.727Z,102453.81
2022-08-05T17:02:23.046Z,102453.69
2022-08-05T17:04:56.340Z,102456.19
2022-08-05T17:07:39.329Z,102459.69
2022-08-05T17:10:16.687Z,102463.16
2022-08-05T17:12:51.712Z,102458.50
2022-08-05T17:15:22.689Z,102464.78
2022-08-05T17:17:55.433Z,102462.16
2022-08-05T17:20:31.980Z,102467.47
2022-08-05T17:23:02.261Z,102463.97
2022-08-05T17:25:33.959Z,102473.56
2022-08-05T17:28:10.509Z,102472.66
2022-08-05T17:30:50.545Z,102472.56
2022-08-05T17:33:23.211Z,102479.81
2022-08-05T17:36:07.662Z,102476.22
2022-08-05T17:38:47.313Z,102477.03
2022-08-05T17:42:16.822Z,102476.03
2022-08-05T17:44:16.569Z,102481.22
2022-08-05T17:46:47.310Z,102478.72
2022-08-05T17:49:18.100Z,102480.53
2022-08-05T17:51:51.596Z,102488.31
2022-08-05T17:54:23.413Z,102488.41
2022-08-05T17:56:56.842Z,102490.06
2022-08-05T17:59:32.824Z,102484.91
2022-08-05T18:02:10.698Z,102483.19
2022-08-05T18:04:53.339Z,102487.53
2022-08-05T18:07:32.974Z,102500.66
2022-08-05T18:10:21.592Z,102504.91
2022-08-05T18:12:52.065Z,102503.16
2022-08-05T18:15:22.188Z,102500.50
2022-08-05T18:18:01.698Z,102505.91
2022-08-05T18:20:34.903Z,102506.59
2022-08-05T18:23:09.106Z,102499.53
2022-08-05T18:25:45.288Z,102500.38
2022-08-05T18:28:17.869Z,102512.59
2022-08-05T18:30:55.662Z,102514.41
2022-08-05T18:33:37.535Z,102521.38
2022-08-05T18:36:19.125Z,102522.13
2022-08-05T18:38:52.575Z,102523.69
2022-08-05T18:41:56.780Z,102520.94
2022-08-05T18:44:34.931Z,102524.47
2022-08-05T18:47:09.714Z,102525.22
2022-08-05T18:49:58.227Z,102531.34
2022-08-05T18:52:38.309Z,102528.59
2022-08-05T18:55:12.888Z,102534.69
2022-08-05T18:57:52.854Z,102535.53
2022-08-05T19:00:29.068Z,102544.38
2022-08-05T19:03:04.764Z,102544.22
2022-08-05T19:06:13.369Z,102542.47
2022-08-05T19:08:30.549Z,102540.50
2022-08-05T19:11:05.092Z,102538.63
2022-08-05T19:13:39.027Z,102542.03
2022-08-05T19:16:25.003Z,102546.44
2022-08-05T19:18:59.611Z,102552.53
2022-08-05T19:21:34.576Z,102560.44
2022-08-05T19:24:12.516Z,102555.88
2022-08-05T19:26:55.510Z,102551.44
2022-08-05T19:29:35.903Z,102555.78
2022-08-05T19:32:11.573Z,102554.78
2022-08-05T19:34:42.323Z,102567.91
2022-08-05T19:37:35.324Z,102573.16
2022-08-05T19:40:17.399Z,102563.38
2022-08-05T19:43:04.788Z,102569.41
2022-08-05T19:45:37.027Z,102572.78
2022-08-05T19:48:14.416Z,102580.69
2022-08-05T19:50:45.370Z,102577.03
2022-08-05T19:53:15.743Z,102587.50
2022-08-05T19:56:12.558Z,102596.28
2022-08-05T19:58:53.553Z,102604.09
2022-08-05T20:01:28.434Z,102598.66
2022-08-05T20:03:59.746Z,102601.31
2022-08-05T20:06:37.560Z,102605.47
2022-08-05T20:09:16.014Z,102601.00
2022-08-05T20:11:48.249Z,102615.91
2022-08-05T20:14:26.876Z,102620.25
2022-08-05T20:16:59.505Z,102620.13
2022-08-05T20:19:36.137Z,102614.69
2022-08-05T20:22:09.625Z,102616.50
2022-08-05T20:24:40.052Z,102617.19
2022-08-05T20:27:11.561Z,102626.91
2022-08-05T20:29:57.691Z,102629.38
2022-08-05T20:32:30.953Z,102626.53
2022-08-05T20:35:03.690Z,102626.53
2022-08-05T20:38:06.362Z,102632.69
2022-08-05T20:40:25.011Z,102640.53
2022-08-05T20:43:00.158Z,102650.16
2022-08-05T20:45:56.637Z,102645.66
2022-08-05T20:48:23.727Z,102646.34
2022-08-05T20:50:57.001Z,102650.66
2022-08-05T20:53:36.622Z,102652.38
2022-08-05T20:56:12.330Z,102652.34
2022-08-05T20:58:43.752Z,102646.94
2022-08-05T21:01:16.932Z,102657.25
2022-08-05T21:03:48.272Z,102650.91
2022-08-05T21:06:27.721Z,102658.72
2022-08-05T21:09:00.365Z,102663.00
2022-08-05T21:12:06.578Z,102663.91
2022-08-05T21:14:20.933Z,102661.19
2022-08-05T21:17:00.154Z,102664.56
2022-08-05T21:19:47.067Z,102662.72
2022-08-05T21:22:23.941Z,102663.41
2022-08-05T21:24:59.688Z,102670.38
2022-08-05T21:27:38.683Z,102669.34
2022-08-05T21:30:17.316Z,102674.53
2022-08-05T21:32:51.059Z,102666.50
2022-08-05T21:35:29.833Z,102670.84
2022-08-05T21:38:01.260Z,102668.03
2022-08-05T21:40:31.873Z,102674.94
2022-08-05T21:43:05.634Z,102671.41
2022-08-05T21:45:51.843Z,102671.28
2022-08-05T21:48:31.927Z,102677.31
2022-08-05T21:51:04.684Z,102672.66
2022-08-05T21:53:59.568Z,102677.84
2022-08-05T21:56:33.873Z,102684.84
2022-08-05T21:59:08.027Z,102677.75
2022-08-05T22:01:54.478Z,102674.19
2022-08-05T22:04:27.507Z,102680.22
2022-08-05T22:06:59.638Z,102680.16
2022-08-05T22:09:46.101Z,102683.63
2022-08-05T22:12:17.767Z,102686.13
2022-08-05T22:14:49.576Z,102690.41
2022-08-05T22:17:21.083Z,102687.63
2022-08-05T22:20:13.439Z,102692.78
2022-08-05T22:22:57.385Z,102690.06
2022-08-05T22:26:09.684Z,102691.72
2022-08-05T22:28:32.626Z,102695.94
2022-08-05T22:31:05.638Z,102691.50
2022-08-05T22:33:57.195Z,102695.84
2022-08-05T22:36:32.733Z,102688.66
2022-08-05T22:39:04.119Z,102685.97
2022-08-05T22:42:09.385Z,102697.41
2022-08-05T22:44:31.897Z,102694.66
2022-08-05T22:47:05.796Z,102693.63
2022-08-05T22:50:20.113Z,102705.84
2022-08-05T22:52:34.164Z,102707.47
2022-08-05T22:55:19.641Z,102710.06
2022-08-05T22:57:55.202Z,102723.22
2022-08-05T23:00:26.815Z,102721.34
2022-08-05T23:02:59.756Z,102723.03
2022-08-05T23:05:36.149Z,102722.91
2022-08-05T23:08:09.705Z,102729.03
2022-08-05T23:10:43.176Z,102735.09
2022-08-05T23:13:13.338Z,102732.41
2022-08-05T23:15:43.571Z,102734.09
2022-08-05T23:18:20.940Z,102735.66
2022-08-05T23:20:56.691Z,102736.50
2022-08-05T23:23:33.708Z,102731.81
2022-08-05T23:26:05.741Z,102736.19
2022-08-05T23:28:36.155Z,102739.66
2022-08-05T23:31:17.223Z,102747.50
2022-08-05T23:34:05.357Z,102748.19
2022-08-05T23:36:39.826Z,102753.34
2022-08-05T23:39:32.139Z,102758.59
2022-08-05T23:42:14.261Z,102754.13
2022-08-05T23:45:00.563Z,102762.81
2022-08-05T23:47:33.712Z,102762.81
2022-08-05T23:50:04.142Z,102761.00
2022-08-05T23:52:50.162Z,102772.41
2022-08-05T23:55:30.972Z,102765.31
2022-08-05T23:58:01.840Z,102773.16
